sensor_id;sensor_type;location;lat;lon;timestamp;temperature;humidity
1129;DHT22;553;51.038;7.216;2024-03-02T00:00:39;8.10;99.90
1129;DHT22;553;51.038;7.216;2024-03-02T00:03:07;8.10;99.90
1129;DHT22;553;51.038;7.216;2024-03-02T00:05:36;8.10;99.90
1129;DHT22;553;51.038;7.216;2024-03-02T00:08:04;8.10;99.90
1129;DHT22;553;51.038;7.216;2024-03-02T00:10:37;8.10;99.90
1129;DHT22;553;51.038;7.216;2024-03-02T00:13:07;8.20;99.90
1129;DHT22;553;51.038;7.216;2024-03-02T00:15:56;8.10;99.90
1129;DHT22;553;51.038;7.216;2024-03-02T00:18:30;8.10;99.90
1129;DHT22;553;51.038;7.216;2024-03-02T00:20:58;8.20;99.90
1129;DHT22;553;51.038;7.216;2024-03-02T00:23:27;8.20;99.90
1129;DHT22;553;51.038;7.216;2024-03-02T00:25:56;8.20;99.90
1129;DHT22;553;51.038;7.216;2024-03-02T00:28:31;8.10;99.90
1129;DHT22;553;51.038;7.216;2024-03-02T00:33:37;8.20;99.90
1129;DHT22;553;51.038;7.216;2024-03-02T00:36:04;8.30;99.90
1129;DHT22;553;51.038;7.216;2024-03-02T00:38:32;8.20;99.90
1129;DHT22;553;51.038;7.216;2024-03-02T00:41:04;8.20;99.90
1129;DHT22;553;51.038;7.216;2024-03-02T00:46:16;8.30;99.90
1129;DHT22;553;51.038;7.216;2024-03-02T00:48:50;8.30;99.90
1129;DHT22;553;51.038;7.216;2024-03-02T00:51:17;8.30;99.90
1129;DHT22;553;51.038;7.216;2024-03-02T00:53:44;8.20;99.90
1129;DHT22;553;51.038;7.216;2024-03-02T00:56:12;8.20;99.90
1129;DHT22;553;51.038;7.216;2024-03-02T00:58:39;8.20;99.90
1129;DHT22;553;51.038;7.216;2024-03-02T01:01:06;8.30;99.90
1129;DHT22;553;51.038;7.216;2024-03-02T01:03:34;8.30;99.90
1129;DHT22;553;51.038;7.216;2024-03-02T01:06:01;8.30;99.90
1129;DHT22;553;51.038;7.216;2024-03-02T01:08:28;8.20;99.90
1129;DHT22;553;51.038;7.216;2024-03-02T01:10:55;8.30;99.90
1129;DHT22;553;51.038;7.216;2024-03-02T01:13:23;8.20;99.90
1129;DHT22;553;51.038;7.216;2024-03-02T01:15:50;8.20;99.90
1129;DHT22;553;51.038;7.216;2024-03-02T01:18:18;8.20;99.90
1129;DHT22;553;51.038;7.216;2024-03-02T01:20:45;8.20;99.90
1129;DHT22;553;51.038;7.216;2024-03-02T01:23:12;8.30;99.90
1129;DHT22;553;51.038;7.216;2024-03-02T01:25:39;8.30;99.90
1129;DHT22;553;51.038;7.216;2024-03-02T01:28:06;8.20;99.90
1129;DHT22;553;51.038;7.216;2024-03-02T01:30:33;8.20;99.90
1129;DHT22;553;51.038;7.216;2024-03-02T01:33:00;8.20;99.90
1129;DHT22;553;51.038;7.216;2024-03-02T01:35:27;8.30;99.90
1129;DHT22;553;51.038;7.216;2024-03-02T01:37:54;8.30;99.90
1129;DHT22;553;51.038;7.216;2024-03-02T01:40:21;8.30;99.90
1129;DHT22;553;51.038;7.216;2024-03-02T01:42:48;8.30;99.90
1129;DHT22;553;51.038;7.216;2024-03-02T01:45:15;8.20;99.90
1129;DHT22;553;51.038;7.216;2024-03-02T01:47:41;8.30;99.90
1129;DHT22;553;51.038;7.216;2024-03-02T01:50:11;8.30;99.90
1129;DHT22;553;51.038;7.216;2024-03-02T01:52:38;8.30;99.90
1129;DHT22;553;51.038;7.216;2024-03-02T01:55:05;8.30;99.90
1129;DHT22;553;51.038;7.216;2024-03-02T01:57:37;8.20;99.90
1129;DHT22;553;51.038;7.216;2024-03-02T02:00:05;8.30;99.90
1129;DHT22;553;51.038;7.216;2024-03-02T02:02:37;8.20;99.90
1129;DHT22;553;51.038;7.216;2024-03-02T02:05:04;8.20;99.90
1129;DHT22;553;51.038;7.216;2024-03-02T02:07:31;8.30;99.90
1129;DHT22;553;51.038;7.216;2024-03-02T02:09:58;8.30;99.90
1129;DHT22;553;51.038;7.216;2024-03-02T02:12:24;8.40;99.90
1129;DHT22;553;51.038;7.216;2024-03-02T02:14:51;8.30;99.90
1129;DHT22;553;51.038;7.216;2024-03-02T02:17:18;8.30;99.90
1129;DHT22;553;51.038;7.216;2024-03-02T02:19:45;8.30;99.90
1129;DHT22;553;51.038;7.216;2024-03-02T02:22:12;8.30;99.90
1129;DHT22;553;51.038;7.216;2024-03-02T02:24:42;8.30;99.90
1129;DHT22;553;51.038;7.216;2024-03-02T02:27:09;8.30;99.90
1129;DHT22;553;51.038;7.216;2024-03-02T02:29:36;8.20;99.90
1129;DHT22;553;51.038;7.216;2024-03-02T02:32:04;8.20;99.90
1129;DHT22;553;51.038;7.216;2024-03-02T02:34:31;8.20;99.90
1129;DHT22;553;51.038;7.216;2024-03-02T02:36:58;8.20;99.90
1129;DHT22;553;51.038;7.216;2024-03-02T02:39:25;8.20;99.90
1129;DHT22;553;51.038;7.216;2024-03-02T02:41:53;8.20;99.90
1129;DHT22;553;51.038;7.216;2024-03-02T02:44:19;8.20;99.90
1129;DHT22;553;51.038;7.216;2024-03-02T02:46:46;8.30;99.90
1129;DHT22;553;51.038;7.216;2024-03-02T02:49:13;8.30;99.90
1129;DHT22;553;51.038;7.216;2024-03-02T02:51:39;8.20;99.90
1129;DHT22;553;51.038;7.216;2024-03-02T02:54:07;8.30;99.90
1129;DHT22;553;51.038;7.216;2024-03-02T02:56:34;8.20;99.90
1129;DHT22;553;51.038;7.216;2024-03-02T02:59:00;8.10;99.90
1129;DHT22;553;51.038;7.216;2024-03-02T03:01:28;8.10;99.90
1129;DHT22;553;51.038;7.216;2024-03-02T03:03:55;8.10;99.90
1129;DHT22;553;51.038;7.216;2024-03-02T03:06:22;8.10;99.90
1129;DHT22;553;51.038;7.216;2024-03-02T03:08:49;8.10;99.90
1129;DHT22;553;51.038;7.216;2024-03-02T03:11:17;8.10;99.90
1129;DHT22;553;51.038;7.216;2024-03-02T03:13:44;8.10;99.90
1129;DHT22;553;51.038;7.216;2024-03-02T03:16:10;8.10;99.90
1129;DHT22;553;51.038;7.216;2024-03-02T03:18:37;8.00;99.90
1129;DHT22;553;51.038;7.216;2024-03-02T03:21:05;8.00;99.90
1129;DHT22;553;51.038;7.216;2024-03-02T03:23:31;8.00;99.90
1129;DHT22;553;51.038;7.216;2024-03-02T03:25:58;8.00;99.90
1129;DHT22;553;51.038;7.216;2024-03-02T03:28:25;8.10;99.90
1129;DHT22;553;51.038;7.216;2024-03-02T03:30:52;8.00;99.90
1129;DHT22;553;51.038;7.216;2024-03-02T03:33:19;8.00;99.90
1129;DHT22;553;51.038;7.216;2024-03-02T03:35:46;8.00;99.90
1129;DHT22;553;51.038;7.216;2024-03-02T03:38:13;8.00;99.90
1129;DHT22;553;51.038;7.216;2024-03-02T03:40:39;8.10;99.90
1129;DHT22;553;51.038;7.216;2024-03-02T03:43:06;8.10;99.90
1129;DHT22;553;51.038;7.216;2024-03-02T03:45:33;8.10;99.90
1129;DHT22;553;51.038;7.216;2024-03-02T03:48:01;8.10;99.90
1129;DHT22;553;51.038;7.216;2024-03-02T03:50:27;8.10;99.90
1129;DHT22;553;51.038;7.216;2024-03-02T03:52:54;8.00;99.90
1129;DHT22;553;51.038;7.216;2024-03-02T03:55:21;8.10;99.90
1129;DHT22;553;51.038;7.216;2024-03-02T03:57:48;8.10;99.90
1129;DHT22;553;51.038;7.216;2024-03-02T04:00:15;8.10;99.90
1129;DHT22;553;51.038;7.216;2024-03-02T04:02:42;8.10;99.90
1129;DHT22;553;51.038;7.216;2024-03-02T04:05:09;8.10;99.90
1129;DHT22;553;51.038;7.216;2024-03-02T04:07:37;8.10;99.90
1129;DHT22;553;51.038;7.216;2024-03-02T04:10:09;8.20;99.90
1129;DHT22;553;51.038;7.216;2024-03-02T04:12:36;8.20;99.90
1129;DHT22;553;51.038;7.216;2024-03-02T04:15:05;8.10;99.90
1129;DHT22;553;51.038;7.216;2024-03-02T04:17:33;8.00;99.90
1129;DHT22;553;51.038;7.216;2024-03-02T04:20:00;8.10;99.90
1129;DHT22;553;51.038;7.216;2024-03-02T04:22:27;8.10;99.90
1129;DHT22;553;51.038;7.216;2024-03-02T04:24:54;8.10;99.90
1129;DHT22;553;51.038;7.216;2024-03-02T04:27:21;8.10;99.90
1129;DHT22;553;51.038;7.216;2024-03-02T04:29:48;8.10;99.90
1129;DHT22;553;51.038;7.216;2024-03-02T04:32:15;8.00;99.90
1129;DHT22;553;51.038;7.216;2024-03-02T04:34:42;8.10;99.90
1129;DHT22;553;51.038;7.216;2024-03-02T04:37:11;8.10;99.90
1129;DHT22;553;51.038;7.216;2024-03-02T04:39:39;8.00;99.90
1129;DHT22;553;51.038;7.216;2024-03-02T04:42:06;8.00;99.90
1129;DHT22;553;51.038;7.216;2024-03-02T04:44:32;7.90;99.90
1129;DHT22;553;51.038;7.216;2024-03-02T04:46:59;7.90;99.90
1129;DHT22;553;51.038;7.216;2024-03-02T04:49:27;7.90;99.90
1129;DHT22;553;51.038;7.216;2024-03-02T04:51:53;7.90;99.90
1129;DHT22;553;51.038;7.216;2024-03-02T04:54:20;7.90;99.90
1129;DHT22;553;51.038;7.216;2024-03-02T04:56:47;7.80;99.90
1129;DHT22;553;51.038;7.216;2024-03-02T04:59:18;7.80;99.90
1129;DHT22;553;51.038;7.216;2024-03-02T05:01:45;7.70;99.90
1129;DHT22;553;51.038;7.216;2024-03-02T05:04:12;7.80;99.90
1129;DHT22;553;51.038;7.216;2024-03-02T05:06:39;7.80;99.90
1129;DHT22;553;51.038;7.216;2024-03-02T05:09:09;7.80;99.90
1129;DHT22;553;51.038;7.216;2024-03-02T05:11:36;7.80;99.90
1129;DHT22;553;51.038;7.216;2024-03-02T05:14:06;7.70;99.90
1129;DHT22;553;51.038;7.216;2024-03-02T05:16:37;7.70;99.90
1129;DHT22;553;51.038;7.216;2024-03-02T05:19:08;7.70;99.90
1129;DHT22;553;51.038;7.216;2024-03-02T05:21:34;7.60;99.90
1129;DHT22;553;51.038;7.216;2024-03-02T05:24:01;7.70;99.90
1129;DHT22;553;51.038;7.216;2024-03-02T05:26:28;7.60;99.90
1129;DHT22;553;51.038;7.216;2024-03-02T05:28:55;7.60;99.90
1129;DHT22;553;51.038;7.216;2024-03-02T05:31:22;7.50;99.90
1129;DHT22;553;51.038;7.216;2024-03-02T05:33:49;7.50;99.90
1129;DHT22;553;51.038;7.216;2024-03-02T05:36:20;7.50;99.90
1129;DHT22;553;51.038;7.216;2024-03-02T05:38:47;7.50;99.90
1129;DHT22;553;51.038;7.216;2024-03-02T05:41:14;7.50;99.90
1129;DHT22;553;51.038;7.216;2024-03-02T05:43:41;7.40;99.90
1129;DHT22;553;51.038;7.216;2024-03-02T05:46:07;7.40;99.90
1129;DHT22;553;51.038;7.216;2024-03-02T05:48:34;7.40;99.90
1129;DHT22;553;51.038;7.216;2024-03-02T05:51:01;7.40;99.90
1129;DHT22;553;51.038;7.216;2024-03-02T05:53:28;7.40;99.90
1129;DHT22;553;51.038;7.216;2024-03-02T05:55:55;7.30;99.90
1129;DHT22;553;51.038;7.216;2024-03-02T05:58:22;7.30;99.90
1129;DHT22;553;51.038;7.216;2024-03-02T06:01:09;7.30;99.90
1129;DHT22;553;51.038;7.216;2024-03-02T06:03:36;7.20;99.90
1129;DHT22;553;51.038;7.216;2024-03-02T06:06:03;7.30;99.90
1129;DHT22;553;51.038;7.216;2024-03-02T06:08:29;7.20;99.90
1129;DHT22;553;51.038;7.216;2024-03-02T06:10:56;7.30;99.90
1129;DHT22;553;51.038;7.216;2024-03-02T06:13:23;7.30;99.90
1129;DHT22;553;51.038;7.216;2024-03-02T06:15:52;7.30;99.90
1129;DHT22;553;51.038;7.216;2024-03-02T06:18:19;7.20;99.90
1129;DHT22;553;51.038;7.216;2024-03-02T06:20:46;7.20;99.90
1129;DHT22;553;51.038;7.216;2024-03-02T06:23:13;7.20;99.90
1129;DHT22;553;51.038;7.216;2024-03-02T06:25:40;7.20;99.90
1129;DHT22;553;51.038;7.216;2024-03-02T06:28:07;7.20;99.90
1129;DHT22;553;51.038;7.216;2024-03-02T06:30:34;7.20;99.90
1129;DHT22;553;51.038;7.216;2024-03-02T06:33:01;7.30;99.90
1129;DHT22;553;51.038;7.216;2024-03-02T06:35:27;7.40;99.90
1129;DHT22;553;51.038;7.216;2024-03-02T06:37:54;7.40;99.90
1129;DHT22;553;51.038;7.216;2024-03-02T06:40:21;7.40;99.90
1129;DHT22;553;51.038;7.216;2024-03-02T06:42:48;7.40;99.90
1129;DHT22;553;51.038;7.216;2024-03-02T06:45:15;7.40;99.90
1129;DHT22;553;51.038;7.216;2024-03-02T06:47:41;7.40;99.90
1129;DHT22;553;51.038;7.216;2024-03-02T06:50:08;7.50;99.90
1129;DHT22;553;51.038;7.216;2024-03-02T06:52:36;7.50;99.90
1129;DHT22;553;51.038;7.216;2024-03-02T06:55:03;7.50;99.90
1129;DHT22;553;51.038;7.216;2024-03-02T06:57:31;7.50;99.90
1129;DHT22;553;51.038;7.216;2024-03-02T06:59:58;7.60;99.90
1129;DHT22;553;51.038;7.216;2024-03-02T07:02:25;7.60;99.90
1129;DHT22;553;51.038;7.216;2024-03-02T07:04:56;7.60;99.90
1129;DHT22;553;51.038;7.216;2024-03-02T07:07:23;7.60;99.90
1129;DHT22;553;51.038;7.216;2024-03-02T07:09:49;7.60;99.90
1129;DHT22;553;51.038;7.216;2024-03-02T07:12:17;7.60;99.90
1129;DHT22;553;51.038;7.216;2024-03-02T07:14:44;7.60;99.90
1129;DHT22;553;51.038;7.216;2024-03-02T07:17:31;7.70;99.90
1129;DHT22;553;51.038;7.216;2024-03-02T07:19:58;7.80;99.90
1129;DHT22;553;51.038;7.216;2024-03-02T07:22:25;7.80;99.90
1129;DHT22;553;51.038;7.216;2024-03-02T07:24:52;7.80;99.90
1129;DHT22;553;51.038;7.216;2024-03-02T07:27:19;7.80;99.90
1129;DHT22;553;51.038;7.216;2024-03-02T07:29:45;7.90;99.90
1129;DHT22;553;51.038;7.216;2024-03-02T07:32:12;8.00;99.90
1129;DHT22;553;51.038;7.216;2024-03-02T07:34:39;7.90;99.90
1129;DHT22;553;51.038;7.216;2024-03-02T07:37:06;8.00;99.90
1129;DHT22;553;51.038;7.216;2024-03-02T07:39:33;8.10;99.90
1129;DHT22;553;51.038;7.216;2024-03-02T07:42:00;8.10;99.90
1129;DHT22;553;51.038;7.216;2024-03-02T07:44:27;8.20;99.90
1129;DHT22;553;51.038;7.216;2024-03-02T07:46:54;8.20;99.90
1129;DHT22;553;51.038;7.216;2024-03-02T07:49:21;8.30;99.90
1129;DHT22;553;51.038;7.216;2024-03-02T07:51:48;8.30;99.90
1129;DHT22;553;51.038;7.216;2024-03-02T07:54:14;8.30;99.90
1129;DHT22;553;51.038;7.216;2024-03-02T07:56:41;8.30;99.90
1129;DHT22;553;51.038;7.216;2024-03-02T07:59:08;8.40;99.90
1129;DHT22;553;51.038;7.216;2024-03-02T08:01:36;8.40;99.90
1129;DHT22;553;51.038;7.216;2024-03-02T08:04:03;8.50;99.90
1129;DHT22;553;51.038;7.216;2024-03-02T08:06:30;8.50;99.90
1129;DHT22;553;51.038;7.216;2024-03-02T08:08:59;8.60;99.90
1129;DHT22;553;51.038;7.216;2024-03-02T08:11:27;8.60;99.90
1129;DHT22;553;51.038;7.216;2024-03-02T08:13:54;8.70;99.90
1129;DHT22;553;51.038;7.216;2024-03-02T08:16:23;8.70;99.90
1129;DHT22;553;51.038;7.216;2024-03-02T08:18:52;8.80;99.90
1129;DHT22;553;51.038;7.216;2024-03-02T08:21:20;8.70;99.90
1129;DHT22;553;51.038;7.216;2024-03-02T08:23:47;8.80;99.90
1129;DHT22;553;51.038;7.216;2024-03-02T08:26:13;9.00;99.90
1129;DHT22;553;51.038;7.216;2024-03-02T08:28:40;9.10;99.90
1129;DHT22;553;51.038;7.216;2024-03-02T08:31:08;9.30;99.90
1129;DHT22;553;51.038;7.216;2024-03-02T08:33:35;9.50;99.50
1129;DHT22;553;51.038;7.216;2024-03-02T08:36:05;9.60;98.90
1129;DHT22;553;51.038;7.216;2024-03-02T08:38:32;9.60;98.70
1129;DHT22;553;51.038;7.216;2024-03-02T08:40:59;9.70;98.10
1129;DHT22;553;51.038;7.216;2024-03-02T08:43:26;9.90;98.30
1129;DHT22;553;51.038;7.216;2024-03-02T08:45:53;10.20;97.40
1129;DHT22;553;51.038;7.216;2024-03-02T08:48:20;10.40;96.70
1129;DHT22;553;51.038;7.216;2024-03-02T08:50:47;10.50;96.50
1129;DHT22;553;51.038;7.216;2024-03-02T08:53:14;10.70;96.20
1129;DHT22;553;51.038;7.216;2024-03-02T08:55:48;11.00;95.30
1129;DHT22;553;51.038;7.216;2024-03-02T08:58:15;11.20;95.00
1129;DHT22;553;51.038;7.216;2024-03-02T09:00:42;11.50;94.20
1129;DHT22;553;51.038;7.216;2024-03-02T09:03:09;11.40;93.10
1129;DHT22;553;51.038;7.216;2024-03-02T09:05:36;11.20;94.20
1129;DHT22;553;51.038;7.216;2024-03-02T09:08:03;11.40;93.90
1129;DHT22;553;51.038;7.216;2024-03-02T09:10:30;11.40;93.50
1129;DHT22;553;51.038;7.216;2024-03-02T09:12:57;11.40;93.50
1129;DHT22;553;51.038;7.216;2024-03-02T09:15:24;11.60;93.50
1129;DHT22;553;51.038;7.216;2024-03-02T09:17:51;11.70;94.20
1129;DHT22;553;51.038;7.216;2024-03-02T09:20:18;11.90;92.60
1129;DHT22;553;51.038;7.216;2024-03-02T09:22:44;11.70;93.00
1129;DHT22;553;51.038;7.216;2024-03-02T09:25:14;11.80;92.60
1129;DHT22;553;51.038;7.216;2024-03-02T09:27:40;11.80;92.70
1129;DHT22;553;51.038;7.216;2024-03-02T09:30:08;12.00;92.30
1129;DHT22;553;51.038;7.216;2024-03-02T09:32:36;12.00;92.50
1129;DHT22;553;51.038;7.216;2024-03-02T09:35:04;12.20;92.80
1129;DHT22;553;51.038;7.216;2024-03-02T09:37:30;12.30;91.30
1129;DHT22;553;51.038;7.216;2024-03-02T09:39:57;12.40;92.80
1129;DHT22;553;51.038;7.216;2024-03-02T09:42:24;12.60;91.40
1129;DHT22;553;51.038;7.216;2024-03-02T09:44:52;12.90;90.80
1129;DHT22;553;51.038;7.216;2024-03-02T09:47:19;12.60;90.90
1129;DHT22;553;51.038;7.216;2024-03-02T09:49:47;12.60;90.80
1129;DHT22;553;51.038;7.216;2024-03-02T09:52:14;12.80;89.80
1129;DHT22;553;51.038;7.216;2024-03-02T09:54:42;12.80;89.20
1129;DHT22;553;51.038;7.216;2024-03-02T09:57:08;12.70;89.60
1129;DHT22;553;51.038;7.216;2024-03-02T09:59:36;12.50;89.10
1129;DHT22;553;51.038;7.216;2024-03-02T10:02:03;12.40;90.00
1129;DHT22;553;51.038;7.216;2024-03-02T10:04:30;12.30;91.60
1129;DHT22;553;51.038;7.216;2024-03-02T10:07:15;12.40;90.50
1129;DHT22;553;51.038;7.216;2024-03-02T10:09:43;12.60;91.00
1129;DHT22;553;51.038;7.216;2024-03-02T10:12:12;12.70;89.50
1129;DHT22;553;51.038;7.216;2024-03-02T10:14:39;12.80;89.70
1129;DHT22;553;51.038;7.216;2024-03-02T10:17:07;13.00;89.80
1129;DHT22;553;51.038;7.216;2024-03-02T10:19:35;13.10;88.50
1129;DHT22;553;51.038;7.216;2024-03-02T10:22:07;13.10;88.30
1129;DHT22;553;51.038;7.216;2024-03-02T10:24:42;13.10;88.20
1129;DHT22;553;51.038;7.216;2024-03-02T10:29:41;13.50;87.70
1129;DHT22;553;51.038;7.216;2024-03-02T10:32:09;13.60;87.50
1129;DHT22;553;51.038;7.216;2024-03-02T10:34:40;13.60;86.40
1129;DHT22;553;51.038;7.216;2024-03-02T10:37:07;13.70;86.70
1129;DHT22;553;51.038;7.216;2024-03-02T10:39:35;13.50;85.80
1129;DHT22;553;51.038;7.216;2024-03-02T10:42:03;13.70;86.50
1129;DHT22;553;51.038;7.216;2024-03-02T10:44:30;13.80;85.90
1129;DHT22;553;51.038;7.216;2024-03-02T10:47:04;13.70;85.90
1129;DHT22;553;51.038;7.216;2024-03-02T10:49:32;13.70;86.60
1129;DHT22;553;51.038;7.216;2024-03-02T10:51:59;13.80;86.30
1129;DHT22;553;51.038;7.216;2024-03-02T10:54:27;13.80;86.10
1129;DHT22;553;51.038;7.216;2024-03-02T10:56:58;13.70;86.80
1129;DHT22;553;51.038;7.216;2024-03-02T10:59:35;13.70;85.60
1129;DHT22;553;51.038;7.216;2024-03-02T11:02:04;13.80;86.00
1129;DHT22;553;51.038;7.216;2024-03-02T11:04:33;13.90;84.70
1129;DHT22;553;51.038;7.216;2024-03-02T11:07:07;14.10;84.80
1129;DHT22;553;51.038;7.216;2024-03-02T11:09:37;13.80;85.60
1129;DHT22;553;51.038;7.216;2024-03-02T11:12:28;13.70;86.20
1129;DHT22;553;51.038;7.216;2024-03-02T11:14:55;13.80;86.80
1129;DHT22;553;51.038;7.216;2024-03-02T11:17:23;13.80;86.50
1129;DHT22;553;51.038;7.216;2024-03-02T11:19:51;13.90;85.70
1129;DHT22;553;51.038;7.216;2024-03-02T11:22:19;14.00;84.90
1129;DHT22;553;51.038;7.216;2024-03-02T11:24:50;14.00;86.70
1129;DHT22;553;51.038;7.216;2024-03-02T11:33:11;14.10;85.30
1129;DHT22;553;51.038;7.216;2024-03-02T11:35:44;14.00;85.70
1129;DHT22;553;51.038;7.216;2024-03-02T11:38:15;14.00;86.10
1129;DHT22;553;51.038;7.216;2024-03-02T11:40:42;14.10;85.70
1129;DHT22;553;51.038;7.216;2024-03-02T11:43:09;14.00;85.40
1129;DHT22;553;51.038;7.216;2024-03-02T11:45:36;13.80;86.20
1129;DHT22;553;51.038;7.216;2024-03-02T11:48:08;13.70;86.30
1129;DHT22;553;51.038;7.216;2024-03-02T11:50:47;13.80;86.40
1129;DHT22;553;51.038;7.216;2024-03-02T11:53:16;13.90;86.60
1129;DHT22;553;51.038;7.216;2024-03-02T11:55:45;14.10;85.80
1129;DHT22;553;51.038;7.216;2024-03-02T11:58:15;14.00;85.30
1129;DHT22;553;51.038;7.216;2024-03-02T12:00:47;13.80;85.60
1129;DHT22;553;51.038;7.216;2024-03-02T12:03:14;13.70;85.80
1129;DHT22;553;51.038;7.216;2024-03-02T12:05:42;13.50;86.70
1129;DHT22;553;51.038;7.216;2024-03-02T12:08:09;13.70;87.30
1129;DHT22;553;51.038;7.216;2024-03-02T12:10:37;13.80;87.10
1129;DHT22;553;51.038;7.216;2024-03-02T12:13:06;13.80;86.00
1129;DHT22;553;51.038;7.216;2024-03-02T12:15:36;13.80;87.10
1129;DHT22;553;51.038;7.216;2024-03-02T12:18:04;13.60;86.80
1129;DHT22;553;51.038;7.216;2024-03-02T12:20:32;13.70;87.80
1129;DHT22;553;51.038;7.216;2024-03-02T12:23:02;14.00;86.50
1129;DHT22;553;51.038;7.216;2024-03-02T12:25:31;13.90;86.50
1129;DHT22;553;51.038;7.216;2024-03-02T12:28:01;13.80;85.90
1129;DHT22;553;51.038;7.216;2024-03-02T12:30:30;13.60;86.00
1129;DHT22;553;51.038;7.216;2024-03-02T12:32:58;13.40;86.60
1129;DHT22;553;51.038;7.216;2024-03-02T12:35:25;13.40;87.00
1129;DHT22;553;51.038;7.216;2024-03-02T12:37:53;13.50;86.60
1129;DHT22;553;51.038;7.216;2024-03-02T12:40:21;13.60;86.40
1129;DHT22;553;51.038;7.216;2024-03-02T12:42:50;13.70;87.20
1129;DHT22;553;51.038;7.216;2024-03-02T12:45:17;13.90;87.60
1129;DHT22;553;51.038;7.216;2024-03-02T12:47:51;13.80;86.80
1129;DHT22;553;51.038;7.216;2024-03-02T12:50:19;13.90;86.90
1129;DHT22;553;51.038;7.216;2024-03-02T12:52:53;13.90;86.40
1129;DHT22;553;51.038;7.216;2024-03-02T12:55:21;14.00;87.20
1129;DHT22;553;51.038;7.216;2024-03-02T12:57:52;13.90;85.60
1129;DHT22;553;51.038;7.216;2024-03-02T13:00:21;13.90;86.30
1129;DHT22;553;51.038;7.216;2024-03-02T13:02:49;13.90;85.40
1129;DHT22;553;51.038;7.216;2024-03-02T13:05:18;13.80;86.30
1129;DHT22;553;51.038;7.216;2024-03-02T13:07:47;13.80;85.30
1129;DHT22;553;51.038;7.216;2024-03-02T13:10:14;13.90;85.50
1129;DHT22;553;51.038;7.216;2024-03-02T13:12:41;14.00;86.40
1129;DHT22;553;51.038;7.216;2024-03-02T13:15:08;14.10;86.30
1129;DHT22;553;51.038;7.216;2024-03-02T13:17:38;14.10;84.80
1129;DHT22;553;51.038;7.216;2024-03-02T13:20:06;14.10;85.30
1129;DHT22;553;51.038;7.216;2024-03-02T13:22:34;14.20;85.10
1129;DHT22;553;51.038;7.216;2024-03-02T13:25:02;14.20;84.70
1129;DHT22;553;51.038;7.216;2024-03-02T13:27:31;14.30;84.80
1129;DHT22;553;51.038;7.216;2024-03-02T13:30:04;14.40;84.00
1129;DHT22;553;51.038;7.216;2024-03-02T13:32:32;14.40;83.50
1129;DHT22;553;51.038;7.216;2024-03-02T13:34:59;14.40;83.70
1129;DHT22;553;51.038;7.216;2024-03-02T13:37:26;14.40;83.70
1129;DHT22;553;51.038;7.216;2024-03-02T13:39:53;14.30;83.40
1129;DHT22;553;51.038;7.216;2024-03-02T13:42:20;14.30;83.50
1129;DHT22;553;51.038;7.216;2024-03-02T13:44:47;14.20;84.20
1129;DHT22;553;51.038;7.216;2024-03-02T13:47:16;14.10;84.60
1129;DHT22;553;51.038;7.216;2024-03-02T13:49:43;14.00;84.90
1129;DHT22;553;51.038;7.216;2024-03-02T13:52:12;14.10;84.70
1129;DHT22;553;51.038;7.216;2024-03-02T13:54:45;14.00;84.90
1129;DHT22;553;51.038;7.216;2024-03-02T13:57:12;13.90;85.20
1129;DHT22;553;51.038;7.216;2024-03-02T13:59:41;13.90;85.70
1129;DHT22;553;51.038;7.216;2024-03-02T14:02:08;14.10;85.20
1129;DHT22;553;51.038;7.216;2024-03-02T14:04:36;14.00;84.70
1129;DHT22;553;51.038;7.216;2024-03-02T14:07:04;13.90;84.80
1129;DHT22;553;51.038;7.216;2024-03-02T14:09:33;13.90;85.30
1129;DHT22;553;51.038;7.216;2024-03-02T14:12:00;14.10;85.00
1129;DHT22;553;51.038;7.216;2024-03-02T14:14:27;14.10;85.40
1129;DHT22;553;51.038;7.216;2024-03-02T14:16:54;14.10;85.00
1129;DHT22;553;51.038;7.216;2024-03-02T14:19:22;14.10;85.40
1129;DHT22;553;51.038;7.216;2024-03-02T14:21:49;14.20;85.70
1129;DHT22;553;51.038;7.216;2024-03-02T14:24:16;14.20;85.40
1129;DHT22;553;51.038;7.216;2024-03-02T14:26:42;14.20;85.00
1129;DHT22;553;51.038;7.216;2024-03-02T14:29:10;14.20;85.00
1129;DHT22;553;51.038;7.216;2024-03-02T14:31:38;14.00;85.50
1129;DHT22;553;51.038;7.216;2024-03-02T14:34:04;14.10;86.30
1129;DHT22;553;51.038;7.216;2024-03-02T14:36:31;14.00;85.40
1129;DHT22;553;51.038;7.216;2024-03-02T14:38:58;13.90;85.10
1129;DHT22;553;51.038;7.216;2024-03-02T14:41:25;14.00;84.80
1129;DHT22;553;51.038;7.216;2024-03-02T14:43:52;14.00;85.10
1129;DHT22;553;51.038;7.216;2024-03-02T14:46:19;14.10;85.50
1129;DHT22;553;51.038;7.216;2024-03-02T14:48:46;14.00;84.70
1129;DHT22;553;51.038;7.216;2024-03-02T14:51:14;14.10;85.00
1129;DHT22;553;51.038;7.216;2024-03-02T14:53:41;14.10;85.40
1129;DHT22;553;51.038;7.216;2024-03-02T14:56:08;14.20;85.00
1129;DHT22;553;51.038;7.216;2024-03-02T14:58:35;14.20;84.90
1129;DHT22;553;51.038;7.216;2024-03-02T15:01:04;14.00;84.70
1129;DHT22;553;51.038;7.216;2024-03-02T15:03:33;14.00;85.40
1129;DHT22;553;51.038;7.216;2024-03-02T15:06:01;13.90;85.20
1129;DHT22;553;51.038;7.216;2024-03-02T15:08:27;13.90;84.70
1129;DHT22;553;51.038;7.216;2024-03-02T15:10:54;14.00;84.70
1129;DHT22;553;51.038;7.216;2024-03-02T15:13:26;14.00;84.00
1129;DHT22;553;51.038;7.216;2024-03-02T15:15:53;13.90;84.20
1129;DHT22;553;51.038;7.216;2024-03-02T15:18:21;14.00;84.60
1129;DHT22;553;51.038;7.216;2024-03-02T15:20:48;14.00;84.80
1129;DHT22;553;51.038;7.216;2024-03-02T15:23:15;14.10;84.70
1129;DHT22;553;51.038;7.216;2024-03-02T15:25:42;14.10;85.00
1129;DHT22;553;51.038;7.216;2024-03-02T15:28:08;14.10;84.80
1129;DHT22;553;51.038;7.216;2024-03-02T15:30:36;14.20;84.80
1129;DHT22;553;51.038;7.216;2024-03-02T15:33:03;14.20;84.70
1129;DHT22;553;51.038;7.216;2024-03-02T15:35:30;14.30;84.70
1129;DHT22;553;51.038;7.216;2024-03-02T15:37:57;14.30;84.40
1129;DHT22;553;51.038;7.216;2024-03-02T15:40:23;14.40;84.20
1129;DHT22;553;51.038;7.216;2024-03-02T15:42:50;14.20;84.40
1129;DHT22;553;51.038;7.216;2024-03-02T15:45:17;14.20;84.70
1129;DHT22;553;51.038;7.216;2024-03-02T15:47:44;14.20;84.20
1129;DHT22;553;51.038;7.216;2024-03-02T15:50:11;14.10;83.90
1129;DHT22;553;51.038;7.216;2024-03-02T15:52:39;14.00;84.10
1129;DHT22;553;51.038;7.216;2024-03-02T15:55:06;14.10;84.20
1129;DHT22;553;51.038;7.216;2024-03-02T15:57:34;14.60;88.40
1129;DHT22;553;51.038;7.216;2024-03-02T16:00:01;14.70;83.20
1129;DHT22;553;51.038;7.216;2024-03-02T16:02:37;14.90;83.40
1129;DHT22;553;51.038;7.216;2024-03-02T16:05:03;14.70;83.10
1129;DHT22;553;51.038;7.216;2024-03-02T16:07:30;14.60;83.60
1129;DHT22;553;51.038;7.216;2024-03-02T16:09:58;14.40;84.60
1129;DHT22;553;51.038;7.216;2024-03-02T16:12:25;14.20;85.20
1129;DHT22;553;51.038;7.216;2024-03-02T16:14:52;14.20;85.70
1129;DHT22;553;51.038;7.216;2024-03-02T16:17:19;14.00;86.20
1129;DHT22;553;51.038;7.216;2024-03-02T16:19:46;14.00;86.60
1129;DHT22;553;51.038;7.216;2024-03-02T16:22:14;13.90;87.20
1129;DHT22;553;51.038;7.216;2024-03-02T16:24:41;13.80;87.40
1129;DHT22;553;51.038;7.216;2024-03-02T16:27:08;13.90;87.00
1129;DHT22;553;51.038;7.216;2024-03-02T16:29:35;13.80;87.20
1129;DHT22;553;51.038;7.216;2024-03-02T16:32:02;13.70;87.40
1129;DHT22;553;51.038;7.216;2024-03-02T16:34:30;13.70;87.50
1129;DHT22;553;51.038;7.216;2024-03-02T16:36:57;13.70;87.60
1129;DHT22;553;51.038;7.216;2024-03-02T16:39:24;13.70;87.30
1129;DHT22;553;51.038;7.216;2024-03-02T16:41:52;13.60;87.50
1129;DHT22;553;51.038;7.216;2024-03-02T16:44:19;13.70;87.60